Time;durP1;ratioP1;P1;durP2;ratioP2;P2;SDS_P1;SDS_P2;PMS_P1;PMS_P2;Temp;Humidity;BMP_temperature;BMP_pressure;BME280_temperature;BME280_humidity;BME280_pressure;Samples;Min_cycle;Max_cycle;Signal;HPM_P1;HPM_P2
2023/06/26 00:00:29;;;;;;;12.53;11.43;;;20.40;98.50;;;;;;6226948;28;20232;-65
2023/06/26 00:03:32;;;;;;;11.70;10.60;;;20.40;98.60;;;;;;6227176;28;20225;-64
2023/06/26 00:06:38;;;;;;;12.57;11.43;;;20.30;98.80;;;;;;6227632;28;20248;-62
2023/06/26 00:09:42;;;;;;;13.17;11.90;;;20.30;99.00;;;;;;6227425;28;20243;-62
2023/06/26 00:12:46;;;;;;;11.20;10.30;;;20.20;99.00;;;;;;6227867;28;20232;-64
2023/06/26 00:15:49;;;;;;;11.97;10.77;;;20.20;99.20;;;;;;6228102;28;20235;-64
2023/06/26 00:18:52;;;;;;;12.90;10.97;;;20.10;99.30;;;;;;6251686;28;20634;-64
2023/06/26 00:21:55;;;;;;;11.63;10.43;;;20.10;99.50;;;;;;6252089;28;20688;-64
2023/06/26 00:25:00;;;;;;;13.30;12.00;;;20.00;99.70;;;;;;6251965;28;20228;-64
2023/06/26 00:28:04;;;;;;;12.03;11.03;;;19.90;99.90;;;;;;6251728;28;20246;-64
2023/06/26 00:31:07;;;;;;;11.80;10.80;;;19.90;99.90;;;;;;6254724;28;20232;-62
2023/06/26 00:34:10;;;;;;;11.30;10.17;;;19.80;99.90;;;;;;6261479;28;20243;-61
2023/06/26 00:37:13;;;;;;;12.27;11.03;;;19.80;99.90;;;;;;6257937;28;20235;-62
2023/06/26 00:40:18;;;;;;;13.67;12.23;;;19.80;99.90;;;;;;6252399;28;20204;-61
2023/06/26 00:43:21;;;;;;;11.40;10.40;;;19.80;99.90;;;;;;6251495;28;20299;-61
2023/06/26 00:46:25;;;;;;;13.70;11.83;;;19.80;99.90;;;;;;6251261;28;20688;-61
2023/06/26 00:49:28;;;;;;;12.00;10.77;;;19.70;99.90;;;;;;6251913;28;20215;-63
2023/06/26 00:52:32;;;;;;;12.73;11.53;;;19.70;99.90;;;;;;6251799;28;20311;-63
2023/06/26 00:55:36;;;;;;;12.60;11.33;;;19.70;99.90;;;;;;6250661;28;20247;-61
2023/06/26 00:58:40;;;;;;;11.70;10.60;;;19.70;99.90;;;;;;6251100;28;20235;-63
2023/06/26 01:01:43;;;;;;;11.97;10.87;;;19.70;99.90;;;;;;6251535;28;20224;-63
2023/06/26 01:04:47;;;;;;;11.60;10.33;;;19.60;99.90;;;;;;6251400;28;20246;-64
2023/06/26 01:07:50;;;;;;;11.63;10.53;;;19.60;99.90;;;;;;6250963;28;20235;-64
2023/06/26 01:10:56;;;;;;;11.73;10.60;;;19.50;99.90;;;;;;6250686;28;20228;-64
2023/06/26 01:14:02;;;;;;;11.80;10.63;;;19.50;99.90;;;;;;6250880;28;20540;-64
2023/06/26 01:17:06;;;;;;;12.10;11.00;;;19.50;99.90;;;;;;6250721;28;20564;-61
2023/06/26 01:20:10;;;;;;;12.30;11.10;;;19.40;99.90;;;;;;6250525;28;20224;-61
2023/06/26 01:23:19;;;;;;;11.57;10.37;;;19.40;99.90;;;;;;6250755;28;20318;-61
2023/06/26 01:26:26;;;;;;;12.30;11.20;;;19.40;99.90;;;;;;6249986;28;20234;-62
2023/06/26 01:29:32;;;;;;;11.97;10.67;;;19.40;99.90;;;;;;6250135;28;20714;-62
2023/06/26 01:32:36;;;;;;;14.73;12.03;;;19.30;99.90;;;;;;6250162;28;20242;-62
2023/06/26 01:35:40;;;;;;;12.23;11.03;;;19.30;99.90;;;;;;6249966;28;20228;-65
2023/06/26 01:38:43;;;;;;;12.40;11.13;;;19.20;99.90;;;;;;6245780;28;20243;-64
2023/06/26 01:41:48;;;;;;;11.60;10.60;;;19.20;99.90;;;;;;6250029;28;20729;-64
2023/06/26 01:44:53;;;;;;;11.83;10.73;;;19.20;99.90;;;;;;6249834;28;20250;-64
2023/06/26 01:47:59;;;;;;;12.10;11.07;;;19.20;99.90;;;;;;6249650;28;20263;-64
2023/06/26 01:51:03;;;;;;;12.30;11.20;;;19.10;99.90;;;;;;6249819;28;20552;-62
2023/06/26 01:54:12;;;;;;;11.57;10.57;;;19.10;99.90;;;;;;6249916;28;20234;-62
2023/06/26 01:57:19;;;;;;;12.40;10.97;;;19.10;99.90;;;;;;6249744;28;20232;-64
2023/06/26 02:00:24;;;;;;;12.23;11.10;;;19.10;99.90;;;;;;6249781;28;20232;-64
2023/06/26 02:03:27;;;;;;;14.13;12.47;;;19.10;99.90;;;;;;6249944;28;20239;-62
2023/06/26 02:06:30;;;;;;;14.03;12.80;;;19.00;99.90;;;;;;6249438;28;20228;-62
2023/06/26 02:09:33;;;;;;;13.90;12.63;;;19.00;99.90;;;;;;6249634;28;20656;-64
2023/06/26 02:12:39;;;;;;;13.80;12.47;;;19.00;99.90;;;;;;6254412;28;20310;-64
2023/06/26 02:15:42;;;;;;;11.70;10.60;;;19.00;99.90;;;;;;6254607;28;20228;-64
2023/06/26 02:18:45;;;;;;;12.40;11.20;;;19.00;99.90;;;;;;6255211;28;20294;-64
2023/06/26 02:21:49;;;;;;;13.60;12.30;;;18.90;99.90;;;;;;6255999;28;20228;-64
2023/06/26 02:24:52;;;;;;;12.87;11.60;;;18.80;99.90;;;;;;6254509;28;20321;-62
2023/06/26 02:27:57;;;;;;;11.80;10.63;;;18.80;99.90;;;;;;6254142;28;20228;-61
2023/06/26 02:31:00;;;;;;;12.80;11.50;;;18.80;99.90;;;;;;6254424;28;20246;-61
2023/06/26 02:34:05;;;;;;;13.33;12.10;;;18.90;99.90;;;;;;6254410;28;20231;-61
2023/06/26 02:37:08;;;;;;;14.57;13.17;;;18.80;99.90;;;;;;6254184;28;20238;-62
2023/06/26 02:40:11;;;;;;;12.33;11.23;;;18.80;99.90;;;;;;6254309;28;20688;-61
2023/06/26 02:43:17;;;;;;;12.60;11.40;;;18.80;99.90;;;;;;6253617;28;20523;-61
2023/06/26 02:46:20;;;;;;;13.30;11.97;;;18.80;99.90;;;;;;6253896;28;20189;-62
2023/06/26 02:49:23;;;;;;;13.67;12.23;;;18.80;99.90;;;;;;6254294;28;20222;-61
2023/06/26 02:52:28;;;;;;;12.93;11.70;;;18.80;99.90;;;;;;6254130;28;20651;-62
2023/06/26 02:55:31;;;;;;;14.13;12.73;;;18.80;99.90;;;;;;6254193;28;20219;-62
2023/06/26 02:58:36;;;;;;;13.17;12.03;;;18.80;99.90;;;;;;6253289;28;20362;-62
2023/06/26 03:01:39;;;;;;;13.03;11.60;;;18.70;99.90;;;;;;6255087;28;20289;-61
2023/06/26 03:04:42;;;;;;;12.13;11.03;;;18.80;99.90;;;;;;6260347;28;20247;-61
2023/06/26 03:07:46;;;;;;;13.30;11.90;;;18.80;99.90;;;;;;6255370;28;20659;-61
2023/06/26 03:10:49;;;;;;;13.73;12.33;;;18.80;99.90;;;;;;6254657;28;20675;-61
2023/06/26 03:13:54;;;;;;;13.17;11.97;;;18.70;99.90;;;;;;6253476;28;20687;-61
2023/06/26 03:16:58;;;;;;;13.67;11.77;;;18.70;99.90;;;;;;6253231;28;20660;-61
2023/06/26 03:20:02;;;;;;;12.80;11.60;;;18.80;99.90;;;;;;6253816;28;20224;-61
2023/06/26 03:23:05;;;;;;;13.07;11.87;;;18.70;99.90;;;;;;6253017;28;20232;-61
2023/06/26 03:26:08;;;;;;;13.67;12.27;;;18.70;99.90;;;;;;6253019;28;20318;-61
2023/06/26 03:29:13;;;;;;;15.03;13.53;;;18.70;99.90;;;;;;6252555;28;20617;-61
2023/06/26 03:32:16;;;;;;;13.67;12.37;;;18.70;99.90;;;;;;6253077;28;20595;-61
2023/06/26 03:35:19;;;;;;;13.30;12.00;;;18.70;99.90;;;;;;6252671;28;20238;-61
2023/06/26 03:38:23;;;;;;;13.80;12.53;;;18.70;99.90;;;;;;6253131;28;20282;-61
2023/06/26 03:41:27;;;;;;;14.37;12.87;;;18.70;99.90;;;;;;6252653;28;20573;-61
2023/06/26 03:44:31;;;;;;;13.43;12.23;;;18.70;99.90;;;;;;6252681;28;20228;-62
2023/06/26 03:47:34;;;;;;;15.63;12.73;;;18.70;99.90;;;;;;6243535;28;20567;-61
2023/06/26 03:50:38;;;;;;;13.80;12.30;;;18.70;99.90;;;;;;6252688;28;20442;-61
2023/06/26 03:53:41;;;;;;;13.40;12.20;;;18.70;99.90;;;;;;6252459;28;20232;-61
2023/06/26 03:56:44;;;;;;;14.57;13.10;;;18.80;99.90;;;;;;6252458;28;20246;-62
2023/06/26 03:59:49;;;;;;;13.00;11.70;;;18.80;99.90;;;;;;6252278;28;20246;-62
2023/06/26 04:02:52;;;;;;;15.63;13.27;;;18.90;99.90;;;;;;6252122;28;20702;-62
2023/06/26 04:05:55;;;;;;;13.20;12.00;;;18.90;99.90;;;;;;6251890;28;20686;-61
2023/06/26 04:08:58;;;;;;;13.50;12.20;;;18.90;99.90;;;;;;6252030;28;20240;-62
2023/06/26 04:12:02;;;;;;;13.57;11.93;;;19.00;99.90;;;;;;6251993;28;20532;-62
2023/06/26 04:15:08;;;;;;;13.50;12.20;;;19.00;99.90;;;;;;6252376;28;20232;-62
2023/06/26 04:18:12;;;;;;;13.30;11.83;;;19.10;99.90;;;;;;6251936;28;20229;-62
2023/06/26 04:21:16;;;;;;;14.20;12.97;;;19.20;99.90;;;;;;6252106;28;20232;-62
2023/06/26 04:24:19;;;;;;;14.00;12.60;;;19.30;99.90;;;;;;6251921;28;20238;-61
2023/06/26 04:27:22;;;;;;;14.03;12.53;;;19.30;99.90;;;;;;6251161;28;20563;-62
2023/06/26 04:30:27;;;;;;;13.57;12.23;;;19.50;99.90;;;;;;6251805;28;20243;-62
2023/06/26 04:33:30;;;;;;;14.50;13.10;;;19.50;99.90;;;;;;6250834;28;20290;-62
2023/06/26 04:36:39;;;;;;;13.20;11.30;;;19.60;99.90;;;;;;6251154;28;20248;-62
2023/06/26 04:39:42;;;;;;;14.03;12.57;;;19.70;99.90;;;;;;6251627;28;20310;-61
2023/06/26 04:42:45;;;;;;;14.87;13.57;;;19.80;99.90;;;;;;6251394;28;20228;-61
2023/06/26 04:45:50;;;;;;;14.80;13.30;;;19.90;99.90;;;;;;6251567;28;20256;-61
2023/06/26 04:48:53;;;;;;;12.97;11.87;;;20.00;99.90;;;;;;6250780;28;20518;-62
2023/06/26 04:52:00;;;;;;;12.67;11.53;;;20.10;99.90;;;;;;6246919;28;20683;-61
2023/06/26 04:55:04;;;;;;;12.67;11.57;;;20.30;99.90;;;;;;6251154;28;20232;-61
2023/06/26 04:58:07;;;;;;;13.30;12.10;;;20.40;99.90;;;;;;6250911;28;20224;-62
2023/06/26 05:01:13;;;;;;;13.93;12.60;;;20.50;99.90;;;;;;6250695;28;20239;-62
2023/06/26 05:04:17;;;;;;;12.87;11.67;;;20.60;99.90;;;;;;6250922;28;20222;-61
2023/06/26 05:07:20;;;;;;;15.13;13.73;;;20.70;99.90;;;;;;6250907;28;20259;-62
2023/06/26 05:10:24;;;;;;;18.03;12.20;;;20.90;99.90;;;;;;6250518;28;20219;-62
2023/06/26 05:13:27;;;;;;;13.87;12.60;;;21.00;99.90;;;;;;6250188;28;20640;-61
2023/06/26 05:16:32;;;;;;;14.57;13.10;;;21.10;99.90;;;;;;6250238;28;20758;-62
2023/06/26 05:19:35;;;;;;;13.10;11.90;;;21.10;99.90;;;;;;6233664;28;20307;-62
2023/06/26 05:22:40;;;;;;;14.77;13.30;;;21.30;99.90;;;;;;6250546;28;21078;-62
2023/06/26 05:25:46;;;;;;;13.33;12.03;;;21.40;99.80;;;;;;6250172;28;20230;-62
2023/06/26 05:28:50;;;;;;;13.17;11.90;;;21.50;99.60;;;;;;6251403;28;20795;-62
2023/06/26 05:31:57;;;;;;;14.10;12.67;;;21.70;99.60;;;;;;6251971;28;20227;-62
2023/06/26 05:35:02;;;;;;;13.67;12.37;;;21.80;99.30;;;;;;6250983;28;20228;-62
2023/06/26 05:38:06;;;;;;;13.50;12.20;;;21.90;99.00;;;;;;6250071;28;20258;-62
2023/06/26 05:41:10;;;;;;;13.03;11.73;;;22.00;98.80;;;;;;6250372;28;20373;-62
2023/06/26 05:44:13;;;;;;;14.00;12.70;;;22.20;98.90;;;;;;6250673;28;20600;-62
2023/06/26 05:47:25;;;;;;;13.30;11.90;;;22.30;98.20;;;;;;6250383;28;20334;-62
2023/06/26 05:50:29;;;;;;;13.40;12.10;;;22.40;98.10;;;;;;6249880;28;21035;-62
2023/06/26 05:53:34;;;;;;;13.47;12.37;;;22.40;98.00;;;;;;6250267;28;20675;-62
2023/06/26 05:56:37;;;;;;;14.00;12.60;;;22.40;97.60;;;;;;6250594;28;20314;-62
2023/06/26 05:59:44;;;;;;;12.70;11.47;;;22.50;97.50;;;;;;6233693;28;20236;-62
2023/06/26 06:02:49;;;;;;;13.47;12.17;;;22.60;97.50;;;;;;6249414;28;20228;-62
2023/06/26 06:05:52;;;;;;;16.47;12.90;;;22.80;97.50;;;;;;6249718;28;20231;-62
2023/06/26 06:08:55;;;;;;;13.40;12.10;;;23.00;97.30;;;;;;6249701;28;20656;-62
2023/06/26 06:12:03;;;;;;;12.10;11.00;;;23.30;96.70;;;;;;6249601;28;20228;-62
2023/06/26 06:15:09;;;;;;;13.03;11.80;;;23.60;96.10;;;;;;6249764;28;20557;-62
2023/06/26 06:18:14;;;;;;;12.80;11.50;;;24.00;95.70;;;;;;6249454;28;20228;-62
2023/06/26 06:21:17;;;;;;;13.73;12.43;;;24.60;94.90;;;;;;6249404;28;20232;-62
2023/06/26 06:24:21;;;;;;;13.07;11.97;;;25.20;94.10;;;;;;6249459;28;20366;-62
2023/06/26 06:27:24;;;;;;;12.67;11.57;;;25.90;92.30;;;;;;6253157;28;20321;-62
2023/06/26 06:30:27;;;;;;;14.10;12.90;;;26.40;91.90;;;;;;6273797;28;20566;-62
2023/06/26 06:33:48;;;;;;;12.83;11.63;;;26.70;91.20;;;;;;6274168;28;20304;-62
2023/06/26 06:36:51;;;;;;;13.27;12.00;;;27.20;90.30;;;;;;6274044;28;20239;-62
2023/06/26 06:39:54;;;;;;;12.97;11.53;;;27.70;87.90;;;;;;6273528;28;20223;-62
2023/06/26 06:42:57;;;;;;;14.30;13.00;;;28.30;85.70;;;;;;6275086;28;20225;-62
2023/06/26 06:46:00;;;;;;;12.40;11.43;;;28.80;81.40;;;;;;6271164;28;20219;-65
2023/06/26 06:49:05;;;;;;;12.70;11.57;;;29.20;79.70;;;;;;6273529;28;20218;-65
2023/06/26 06:52:08;;;;;;;13.30;12.10;;;29.90;76.90;;;;;;6274144;28;20336;-65
2023/06/26 06:55:12;;;;;;;13.73;12.53;;;30.30;73.30;;;;;;6256144;28;20258;-65
2023/06/26 06:58:16;;;;;;;12.23;11.23;;;30.80;70.70;;;;;;6275768;28;20227;-65
2023/06/26 07:01:19;;;;;;;13.35;12.25;;;31.60;67.10;;;;;;6290636;28;20692;-65
2023/06/26 07:04:24;;;;;;;13.45;12.25;;;32.20;62.60;;;;;;6288728;28;20195;-65
2023/06/26 07:07:30;;;;;;;11.43;10.45;;;32.50;59.70;;;;;;6287639;28;20211;-65
2023/06/26 07:10:34;;;;;;;11.65;10.65;;;32.60;58.50;;;;;;6287647;28;20207;-65
2023/06/26 07:13:37;;;;;;;12.50;11.60;;;33.10;57.40;;;;;;6285947;28;20233;-65
2023/06/26 07:16:40;;;;;;;11.82;10.82;;;33.60;56.20;;;;;;6277340;28;20233;-65
2023/06/26 07:19:45;;;;;;;13.60;12.45;;;34.20;53.80;;;;;;6272227;28;20237;-65
2023/06/26 07:22:49;;;;;;;12.07;11.07;;;34.40;52.80;;;;;;6277605;28;20315;-65
2023/06/26 07:25:52;;;;;;;11.25;10.30;;;34.10;52.20;;;;;;6277925;28;20264;-65
2023/06/26 07:28:56;;;;;;;11.98;11.15;;;34.80;51.80;;;;;;6260975;28;20294;-65
2023/06/26 07:31:59;;;;;;;11.68;10.75;;;35.60;49.30;;;;;;6252935;28;20238;-65
2023/06/26 07:35:05;;;;;;;12.05;11.15;;;36.60;47.10;;;;;;6253007;28;20230;-65
2023/06/26 07:38:08;;;;;;;11.60;10.70;;;36.90;45.40;;;;;;6253145;28;20246;-65
2023/06/26 07:41:11;;;;;;;11.95;11.02;;;36.90;44.50;;;;;;6251993;28;20236;-65
2023/06/26 07:44:14;;;;;;;11.98;10.98;;;36.20;45.00;;;;;;6252544;28;20231;-65
2023/06/26 07:47:17;;;;;;;11.77;10.68;;;36.20;44.90;;;;;;6245287;28;20219;-65
2023/06/26 07:50:23;;;;;;;11.25;10.45;;;35.60;45.20;;;;;;6251721;28;20306;-64
2023/06/26 07:53:26;;;;;;;11.95;11.05;;;35.30;46.20;;;;;;6252159;28;20234;-65
2023/06/26 07:56:30;;;;;;;12.07;11.18;;;34.70;46.00;;;;;;6251240;28;20220;-64
2023/06/26 07:59:33;;;;;;;12.73;11.57;;;34.30;47.40;;;;;;6251180;28;20211;-64
2023/06/26 08:02:36;;;;;;;11.95;11.05;;;33.60;47.50;;;;;;6247237;28;20227;-66
2023/06/26 08:05:41;;;;;;;11.63;10.68;;;33.20;47.80;;;;;;6250833;28;20576;-65
2023/06/26 08:08:44;;;;;;;10.27;9.55;;;33.00;49.30;;;;;;6250464;28;20235;-65
2023/06/26 08:11:48;;;;;;;11.45;10.45;;;32.90;49.00;;;;;;6251133;28;20655;-66
2023/06/26 08:14:51;;;;;;;13.82;12.40;;;32.90;48.40;;;;;;6251686;28;20231;-65
2023/06/26 08:17:54;;;;;;;14.57;13.40;;;32.50;48.70;;;;;;6251599;28;20250;-65
2023/06/26 08:20:59;;;;;;;16.15;14.60;;;32.10;50.40;;;;;;6251201;28;20231;-64
2023/06/26 08:24:03;;;;;;;11.30;10.45;;;31.70;51.30;;;;;;6251700;28;20227;-65
2023/06/26 08:27:07;;;;;;;13.00;11.90;;;31.40;51.10;;;;;;6252068;28;20242;-65
2023/06/26 08:30:11;;;;;;;13.80;12.07;;;31.20;51.80;;;;;;6276164;28;20227;-65
2023/06/26 08:33:14;;;;;;;11.73;10.73;;;31.00;52.50;;;;;;6276985;28;20235;-65
2023/06/26 08:36:19;;;;;;;13.43;12.43;;;30.80;53.30;;;;;;6278720;28;20674;-63
2023/06/26 08:39:22;;;;;;;13.43;12.32;;;30.60;53.30;;;;;;6275760;28;20219;-65
2023/06/26 08:42:25;;;;;;;11.68;10.75;;;30.60;53.70;;;;;;6275742;28;20304;-63
2023/06/26 08:45:29;;;;;;;12.07;11.07;;;30.70;54.10;;;;;;6276407;28;20317;-64
2023/06/26 08:48:34;;;;;;;13.05;11.88;;;30.80;53.80;;;;;;6275311;28;20681;-65
2023/06/26 08:51:44;;;;;;;13.00;11.43;;;30.70;53.80;;;;;;6275661;28;20242;-65
2023/06/26 08:54:55;;;;;;;12.18;11.05;;;30.80;54.10;;;;;;6275166;28;20265;-64
2023/06/26 08:57:59;;;;;;;11.00;9.90;;;30.90;53.40;;;;;;6250756;28;20314;-63
2023/06/26 09:01:03;;;;;;;12.05;11.07;;;31.00;52.70;;;;;;6249874;28;20393;-63
2023/06/26 09:04:06;;;;;;;11.07;10.18;;;31.10;51.90;;;;;;6250149;28;20385;-62
2023/06/26 09:07:13;;;;;;;11.05;10.23;;;31.20;52.00;;;;;;6249722;28;20251;-63
2023/06/26 09:10:17;;;;;;;11.13;10.32;;;31.20;51.40;;;;;;6249104;28;20633;-62
2023/06/26 09:13:20;;;;;;;11.25;10.35;;;31.30;51.20;;;;;;6249411;28;20208;-65
2023/06/26 09:16:32;;;;;;;12.23;11.23;;;31.40;51.60;;;;;;6249741;28;20184;-62
2023/06/26 09:19:38;;;;;;;10.68;9.88;;;31.40;50.70;;;;;;6249820;28;20218;-63
2023/06/26 09:22:48;;;;;;;10.75;9.85;;;31.40;49.50;;;;;;6253763;28;20608;-62
2023/06/26 09:25:52;;;;;;;10.05;9.05;;;31.20;49.70;;;;;;6274207;28;20237;-64
2023/06/26 09:28:57;;;;;;;9.73;8.88;;;31.30;48.80;;;;;;6274090;28;20288;-64
2023/06/26 09:32:01;;;;;;;10.10;9.40;;;31.40;49.00;;;;;;6274465;28;20257;-63
2023/06/26 09:35:05;;;;;;;8.05;7.45;;;31.50;48.70;;;;;;6274729;28;20306;-63
2023/06/26 09:38:09;;;;;;;8.23;7.50;;;31.40;48.00;;;;;;6274541;28;20234;-64
2023/06/26 09:41:12;;;;;;;8.15;7.45;;;31.50;47.80;;;;;;6274178;28;20673;-65
2023/06/26 09:44:16;;;;;;;8.38;7.68;;;31.60;47.10;;;;;;6275413;28;20239;-63
2023/06/26 09:47:20;;;;;;;8.73;8.02;;;31.60;46.60;;;;;;6273745;28;20234;-63
2023/06/26 09:50:27;;;;;;;8.73;7.95;;;31.50;47.00;;;;;;6274146;28;20534;-63
2023/06/26 09:53:35;;;;;;;9.25;8.48;;;31.60;47.10;;;;;;6273864;28;20360;-62
2023/06/26 09:56:39;;;;;;;8.98;8.27;;;31.70;47.70;;;;;;6259222;28;20245;-64
2023/06/26 09:59:44;;;;;;;9.85;9.15;;;31.80;46.80;;;;;;6248955;28;20245;-65
2023/06/26 10:02:47;;;;;;;9.90;9.15;;;31.80;47.90;;;;;;6249400;28;20273;-63
2023/06/26 10:05:51;;;;;;;10.63;9.82;;;31.80;48.80;;;;;;6249676;28;20260;-63
2023/06/26 10:08:59;;;;;;;10.50;9.68;;;32.10;48.90;;;;;;6249146;28;20227;-64
2023/06/26 10:12:04;;;;;;;8.00;7.30;;;31.90;49.80;;;;;;6240049;28;20238;-63
2023/06/26 10:15:12;;;;;;;9.38;8.48;;;31.80;45.10;;;;;;6249314;28;20231;-63
2023/06/26 10:18:18;;;;;;;8.93;8.23;;;31.80;47.70;;;;;;6248351;28;20244;-63
2023/06/26 10:21:24;;;;;;;9.23;8.43;;;31.70;47.10;;;;;;6249366;28;20223;-63
2023/06/26 10:24:32;;;;;;;12.00;10.98;;;31.80;48.40;;;;;;6248724;28;20265;-64
2023/06/26 10:27:39;;;;;;;10.30;9.15;;;31.60;48.50;;;;;;6248732;28;20246;-64
2023/06/26 10:30:45;;;;;;;11.02;10.13;;;31.30;48.70;;;;;;6249161;28;20246;-64
2023/06/26 10:33:50;;;;;;;11.00;9.93;;;31.10;51.40;;;;;;6254176;28;20232;-63
2023/06/26 10:37:01;;;;;;;9.57;8.88;;;31.20;52.10;;;;;;6253564;28;20545;-63
2023/06/26 10:40:09;;;;;;;9.63;8.93;;;31.30;51.90;;;;;;6254244;28;20539;-66
2023/06/26 10:43:15;;;;;;;11.23;10.32;;;31.10;51.70;;;;;;6253660;28;20301;-64
2023/06/26 10:46:20;;;;;;;9.90;9.10;;;31.10;51.20;;;;;;6254075;28;20223;-63
2023/06/26 10:49:29;;;;;;;10.68;9.82;;;31.00;51.40;;;;;;6258010;28;20619;-64
2023/06/26 10:52:38;;;;;;;9.73;8.93;;;31.10;51.20;;;;;;6278230;28;20292;-64
2023/06/26 10:55:50;;;;;;;9.52;8.82;;;31.20;50.90;;;;;;6270977;28;20223;-65
2023/06/26 10:58:53;;;;;;;10.10;9.20;;;31.30;50.60;;;;;;6253530;28;20738;-63
2023/06/26 11:01:59;;;;;;;9.70;8.90;;;31.40;50.00;;;;;;6236177;28;20223;-63
2023/06/26 11:05:07;;;;;;;9.55;8.85;;;31.40;49.50;;;;;;6274723;28;20231;-65
2023/06/26 11:08:15;;;;;;;8.80;8.13;;;31.80;49.50;;;;;;6260102;28;20238;-64
2023/06/26 11:11:20;;;;;;;9.55;8.65;;;31.50;48.70;;;;;;6281270;28;20231;-63
2023/06/26 11:14:25;;;;;;;10.98;10.10;;;31.70;49.90;;;;;;6273217;28;20227;-64
2023/06/26 11:17:30;;;;;;;10.20;9.30;;;31.60;50.40;;;;;;6274885;28;20262;-65
2023/06/26 11:20:35;;;;;;;10.25;9.35;;;31.60;50.80;;;;;;6277156;28;20685;-64
2023/06/26 11:23:40;;;;;;;9.20;8.50;;;31.80;50.20;;;;;;6277760;28;20296;-63
2023/06/26 11:26:46;;;;;;;9.55;8.75;;;31.60;50.50;;;;;;6277533;28;20245;-63
2023/06/26 11:29:49;;;;;;;9.23;8.43;;;31.30;51.20;;;;;;6277683;28;20663;-63
2023/06/26 11:32:53;;;;;;;9.68;8.98;;;31.20;51.30;;;;;;6276551;28;20224;-64
2023/06/26 11:35:56;;;;;;;10.50;9.68;;;31.00;52.10;;;;;;6276805;28;20357;-63
2023/06/26 11:39:01;;;;;;;9.73;8.75;;;31.00;51.40;;;;;;6276911;28;20227;-63
2023/06/26 11:42:06;;;;;;;9.85;9.10;;;31.10;52.00;;;;;;6276133;28;20226;-63
2023/06/26 11:45:10;;;;;;;8.73;8.13;;;31.20;51.50;;;;;;6276037;28;20241;-63
2023/06/26 11:48:13;;;;;;;10.77;9.77;;;31.30;51.60;;;;;;6276491;28;20277;-63
2023/06/26 11:51:17;;;;;;;9.82;8.93;;;31.40;50.90;;;;;;6276525;28;20646;-64
2023/06/26 11:54:25;;;;;;;9.80;9.00;;;31.50;51.00;;;;;;6277104;28;20238;-63
2023/06/26 11:57:31;;;;;;;9.55;8.75;;;31.50;50.90;;;;;;6276618;28;20237;-63
2023/06/26 12:00:36;;;;;;;9.25;8.45;;;31.80;50.50;;;;;;6276701;28;20260;-65
2023/06/26 12:03:39;;;;;;;9.13;8.43;;;31.90;50.30;;;;;;6276755;28;20233;-63
2023/06/26 12:06:45;;;;;;;9.48;8.68;;;32.10;50.70;;;;;;6276631;28;20234;-64
2023/06/26 12:09:49;;;;;;;9.25;8.43;;;32.00;50.20;;;;;;6275693;28;20231;-66
2023/06/26 12:12:58;;;;;;;10.10;9.30;;;31.80;50.20;;;;;;6276095;28;20231;-64
2023/06/26 12:16:01;;;;;;;9.15;8.35;;;31.90;50.30;;;;;;6276468;28;20655;-65
2023/06/26 12:19:06;;;;;;;9.48;8.68;;;32.00;49.80;;;;;;6271464;28;20242;-64
2023/06/26 12:22:09;;;;;;;9.23;8.45;;;32.20;49.90;;;;;;6276671;28;20245;-65
2023/06/26 12:25:12;;;;;;;9.35;8.65;;;32.40;49.90;;;;;;6276016;28;20226;-65
2023/06/26 12:28:18;;;;;;;9.93;9.13;;;32.20;49.70;;;;;;6264038;28;20533;-63
2023/06/26 12:31:22;;;;;;;9.75;9.05;;;31.90;49.60;;;;;;6250076;28;20216;-63
2023/06/26 12:34:29;;;;;;;8.65;8.05;;;31.90;49.60;;;;;;6249880;28;20206;-63
2023/06/26 12:37:40;;;;;;;9.55;8.48;;;32.00;49.80;;;;;;6250233;28;20595;-63
2023/06/26 12:40:46;;;;;;;9.85;9.05;;;31.90;49.40;;;;;;6248615;28;20227;-63
2023/06/26 12:43:56;;;;;;;10.55;9.73;;;31.50;50.10;;;;;;6250953;28;20223;-64
2023/06/26 12:47:00;;;;;;;8.93;8.27;;;31.10;50.10;;;;;;6250578;28;20265;-63
2023/06/26 12:50:07;;;;;;;9.18;8.48;;;31.10;49.90;;;;;;6250381;28;20330;-63
2023/06/26 12:53:10;;;;;;;8.63;7.93;;;31.00;49.70;;;;;;6250274;28;20231;-63
2023/06/26 12:56:13;;;;;;;9.38;8.68;;;31.10;50.50;;;;;;6238145;28;20244;-63
2023/06/26 12:59:18;;;;;;;9.05;8.25;;;31.20;50.10;;;;;;6225972;28;20242;-65
2023/06/26 13:02:21;;;;;;;9.65;8.95;;;31.00;50.30;;;;;;6225990;28;20704;-65
2023/06/26 13:05:24;;;;;;;8.95;8.35;;;31.10;50.50;;;;;;6249042;28;20223;-65
2023/06/26 13:08:28;;;;;;;9.23;8.43;;;31.20;50.40;;;;;;6249882;28;20317;-64
2023/06/26 13:11:32;;;;;;;8.65;8.05;;;31.20;50.50;;;;;;6249682;28;20224;-63
2023/06/26 13:14:38;;;;;;;8.52;7.90;;;31.20;50.00;;;;;;6249783;28;20219;-64
2023/06/26 13:17:41;;;;;;;8.40;7.72;;;31.10;49.80;;;;;;6249273;28;20224;-65
2023/06/26 13:20:44;;;;;;;8.63;7.82;;;30.90;49.40;;;;;;6250159;28;20305;-65
2023/06/26 13:23:48;;;;;;;9.48;8.77;;;31.00;50.00;;;;;;6250435;28;20223;-65
2023/06/26 13:26:51;;;;;;;9.43;8.63;;;31.10;50.50;;;;;;6249613;28;20231;-66
2023/06/26 13:29:56;;;;;;;9.50;8.57;;;31.00;50.90;;;;;;6274472;28;20309;-63
2023/06/26 13:33:00;;;;;;;9.52;8.82;;;30.80;51.20;;;;;;6273798;28;20544;-64
2023/06/26 13:36:05;;;;;;;9.23;8.52;;;30.60;51.30;;;;;;6274501;28;20670;-65
2023/06/26 13:39:08;;;;;;;8.27;7.63;;;30.70;51.20;;;;;;6274211;28;20234;-65
2023/06/26 13:42:12;;;;;;;8.85;8.15;;;30.80;50.80;;;;;;6273705;28;20247;-64
2023/06/26 13:45:17;;;;;;;8.38;7.68;;;30.80;51.10;;;;;;6274020;28;20725;-64
2023/06/26 13:48:33;;;;;;;9.63;8.82;;;30.60;51.20;;;;;;6274896;28;20628;-65
2023/06/26 13:51:37;;;;;;;10.07;9.18;;;30.30;50.70;;;;;;6275080;28;20258;-66
2023/06/26 13:54:41;;;;;;;9.20;8.40;;;30.20;51.10;;;;;;6274376;28;20231;-65
2023/06/26 13:57:45;;;;;;;8.95;8.25;;;30.30;51.30;;;;;;6275116;28;20674;-66
2023/06/26 14:00:49;;;;;;;9.13;8.43;;;30.30;51.50;;;;;;6274087;28;20705;-65
2023/06/26 14:03:56;;;;;;;9.75;8.98;;;30.30;51.80;;;;;;6249462;28;20288;-65
2023/06/26 14:06:59;;;;;;;8.48;7.78;;;30.30;52.20;;;;;;6248518;28;20232;-64
2023/06/26 14:10:03;;;;;;;9.60;8.73;;;30.40;52.40;;;;;;6249231;28;20687;-65
2023/06/26 14:13:11;;;;;;;9.25;8.55;;;30.40;52.80;;;;;;6248972;28;20638;-65
2023/06/26 14:16:18;;;;;;;9.73;8.82;;;30.30;52.40;;;;;;6249025;28;20234;-65
2023/06/26 14:19:21;;;;;;;9.02;8.32;;;30.40;52.80;;;;;;6249277;28;20219;-64
2023/06/26 14:22:25;;;;;;;10.10;9.15;;;30.40;52.40;;;;;;6248918;28;20218;-64
2023/06/26 14:25:30;;;;;;;10.13;9.23;;;30.40;53.10;;;;;;6239683;28;20541;-64
2023/06/26 14:28:33;;;;;;;9.90;9.20;;;30.40;53.40;;;;;;6248825;28;20253;-64
2023/06/26 14:31:38;;;;;;;9.57;8.77;;;30.40;53.40;;;;;;6248851;28;20520;-65
2023/06/26 14:34:41;;;;;;;8.80;8.13;;;30.20;53.60;;;;;;6248971;28;20223;-64
2023/06/26 14:37:46;;;;;;;9.52;8.77;;;30.00;54.40;;;;;;6249353;28;20239;-64
2023/06/26 14:40:49;;;;;;;9.13;8.35;;;29.70;54.40;;;;;;6249039;28;20547;-65
2023/06/26 14:43:53;;;;;;;9.32;8.52;;;29.90;55.10;;;;;;6248884;28;20242;-65
2023/06/26 14:46:58;;;;;;;9.48;8.77;;;30.00;54.20;;;;;;6248003;28;20242;-66
2023/06/26 14:50:01;;;;;;;9.30;8.20;;;30.10;53.70;;;;;;6269922;28;20237;-65
2023/06/26 14:53:05;;;;;;;10.13;9.27;;;30.20;53.20;;;;;;6273211;28;20235;-64
2023/06/26 14:56:08;;;;;;;9.05;8.25;;;30.30;53.10;;;;;;6273365;28;20981;-66
2023/06/26 14:59:12;;;;;;;10.13;9.13;;;30.30;53.20;;;;;;6273134;28;20237;-66
2023/06/26 15:02:16;;;;;;;10.63;9.73;;;30.30;52.60;;;;;;6273217;28;20230;-65
2023/06/26 15:05:21;;;;;;;9.23;8.52;;;30.40;52.70;;;;;;6273036;28;20227;-66
2023/06/26 15:08:24;;;;;;;10.10;9.30;;;30.40;52.70;;;;;;6273391;28;20239;-65
2023/06/26 15:11:28;;;;;;;10.10;9.30;;;30.40;52.40;;;;;;6273017;28;20302;-65
2023/06/26 15:14:31;;;;;;;9.32;8.57;;;30.40;53.00;;;;;;6272769;28;20241;-65
2023/06/26 15:17:36;;;;;;;9.20;8.40;;;30.30;52.90;;;;;;6273328;28;20241;-64
2023/06/26 15:20:39;;;;;;;9.43;7.88;;;30.10;52.70;;;;;;6275104;28;20273;-65
2023/06/26 15:23:42;;;;;;;8.68;7.88;;;30.10;53.10;;;;;;6277732;28;20269;-65
2023/06/26 15:26:46;;;;;;;8.40;7.80;;;30.10;53.40;;;;;;6277736;28;20254;-69
2023/06/26 15:29:49;;;;;;;9.10;8.40;;;30.30;54.50;;;;;;6274278;28;20227;-67
2023/06/26 15:32:53;;;;;;;10.88;10.00;;;30.40;54.00;;;;;;6276738;28;20310;-67
2023/06/26 15:35:57;;;;;;;9.65;8.75;;;30.50;54.30;;;;;;6277222;28;20234;-67
2023/06/26 15:39:00;;;;;;;9.75;8.95;;;30.50;54.10;;;;;;6277498;28;20553;-67
2023/06/26 15:42:03;;;;;;;10.23;9.43;;;30.20;54.50;;;;;;6277239;28;20222;-66